Time;durP1;ratioP1;P1;durP2;ratioP2;P2;SDS_P1;SDS_P2;PMS_P1;PMS_P2;Temp;Humidity;BMP_temperature;BMP_pressure;BME280_temperature;BME280_humidity;BME280_pressure;Samples;Min_cycle;Max_cycle;Signal;HPM_P1;HPM_P2
2023/09/23 00:00:13;;;;;;;2.45;1.60;;;;;;;14.95;100.00;99711.56;5055256;28;20104;-79
2023/09/23 00:02:49;;;;;;;4.88;1.83;;;;;;;15.00;100.00;99709.94;5056429;28;20078;-77
2023/09/23 00:05:15;;;;;;;3.90;1.77;;;;;;;14.97;100.00;99708.91;5056086;28;20021;-78
2023/09/23 00:07:42;;;;;;;3.70;1.70;;;;;;;15.01;100.00;99706.53;5055719;28;20029;-80
2023/09/23 00:10:09;;;;;;;3.17;1.77;;;;;;;15.02;100.00;99722.44;5056267;28;20061;-78
2023/09/23 00:12:36;;;;;;;1.95;1.40;;;;;;;15.05;100.00;99737.88;5021934;28;20104;-77
2023/09/23 00:15:05;;;;;;;2.15;1.60;;;;;;;15.06;100.00;99739.44;5056065;28;20039;-77
2023/09/23 00:17:40;;;;;;;3.78;1.85;;;;;;;15.06;100.00;99751.75;5054665;28;20041;-78
2023/09/23 00:20:16;;;;;;;3.90;1.80;;;;;;;15.06;100.00;99740.22;5055947;28;20094;-79
2023/09/23 00:22:46;;;;;;;4.88;1.88;;;;;;;15.11;100.00;99730.75;5056168;28;20112;-77
2023/09/23 00:25:18;;;;;;;2.03;1.42;;;;;;;15.17;100.00;99733.56;5055604;28;20029;-78
2023/09/23 00:27:45;;;;;;;2.70;1.40;;;;;;;15.22;100.00;99726.97;5054463;28;20104;-79
2023/09/23 00:30:12;;;;;;;6.13;1.77;;;;;;;15.24;100.00;99721.47;5037777;28;20123;-78
2023/09/23 00:32:42;;;;;;;3.78;1.75;;;;;;;15.29;100.00;99726.38;5055532;28;20483;-77
2023/09/23 00:35:11;;;;;;;3.85;1.83;;;;;;;15.30;100.00;99730.03;5055743;28;20021;-77
2023/09/23 00:37:38;;;;;;;12.70;2.80;;;;;;;15.30;100.00;99721.41;5055976;28;20021;-77
2023/09/23 00:40:05;;;;;;;3.45;1.83;;;;;;;15.31;100.00;99722.97;5053772;28;20037;-78
2023/09/23 00:42:30;;;;;;;3.38;2.28;;;;;;;15.36;100.00;99728.66;5055310;28;20014;-79
2023/09/23 00:44:57;;;;;;;4.18;1.80;;;;;;;15.41;100.00;99744.31;5053769;28;20032;-79
2023/09/23 00:47:23;;;;;;;4.00;1.83;;;;;;;15.41;100.00;99744.31;5053946;28;20051;-78
2023/09/23 00:49:48;;;;;;;1.63;1.40;;;;;;;15.46;100.00;99737.72;5053990;28;20044;-78
2023/09/23 00:52:16;;;;;;;2.42;1.98;;;;;;;15.49;100.00;99756.78;5055266;28;20088;-78
2023/09/23 00:54:46;;;;;;;2.53;1.63;;;;;;;15.51;100.00;99762.78;5054075;28;20031;-77
2023/09/23 00:57:14;;;;;;;5.65;1.42;;;;;;;15.46;100.00;99766.50;5055161;28;20025;-78
2023/09/23 00:59:40;;;;;;;3.42;1.73;;;;;;;15.39;100.00;99764.22;5037002;28;20037;-79
2023/09/23 01:02:14;;;;;;;2.97;2.10;;;;;;;15.36;100.00;99765.31;5054191;28;20117;-77
2023/09/23 01:04:39;;;;;;;2.88;2.10;;;;;;;15.35;100.00;99769.50;5055296;28;20390;-76
2023/09/23 01:07:14;;;;;;;4.43;2.03;;;;;;;15.35;100.00;99766.63;5053656;28;20505;-77
2023/09/23 01:09:41;;;;;;;3.25;2.22;;;;;;;15.40;100.00;99739.88;5053466;28;20017;-79
2023/09/23 01:12:09;;;;;;;4.85;2.45;;;;;;;15.39;100.00;99735.44;5053118;28;20025;-77
2023/09/23 01:14:34;;;;;;;5.70;2.22;;;;;;;15.40;100.00;99742.75;5053226;28;20041;-77
2023/09/23 01:17:01;;;;;;;4.22;2.47;;;;;;;15.41;100.00;99735.69;5054847;28;20032;-77
2023/09/23 01:19:29;;;;;;;5.13;2.03;;;;;;;15.47;100.00;99730.59;5054806;28;20048;-75
2023/09/23 01:21:56;;;;;;;7.40;2.65;;;;;;;15.50;100.00;99723.78;5053295;28;20028;-78
2023/09/23 01:24:21;;;;;;;4.75;1.90;;;;;;;15.49;100.00;99716.47;5054294;28;20060;-77
2023/09/23 01:26:51;;;;;;;4.38;2.20;;;;;;;15.50;100.00;99718.81;5054318;28;20386;-78
2023/09/23 01:29:23;;;;;;;5.80;2.72;;;;;;;15.49;100.00;99731.66;5054670;28;20098;-78
2023/09/23 01:32:31;;;;;;;7.55;2.30;;;;;;;15.48;100.00;99729.28;5053385;28;20135;-78
2023/09/23 01:35:05;;;;;;;5.05;2.60;;;;;;;15.46;100.00;99721.22;5052827;28;20064;-78
2023/09/23 01:37:34;;;;;;;3.55;2.35;;;;;;;15.45;100.00;99716.78;5054461;28;20031;-76
2023/09/23 01:39:59;;;;;;;4.45;2.20;;;;;;;15.44;100.00;99723.84;5053612;28;20120;-78
2023/09/23 01:42:28;;;;;;;13.50;3.03;;;;;;;15.47;100.00;99733.50;5054050;28;20211;-77
2023/09/23 01:44:57;;;;;;;4.03;2.45;;;;;;;15.45;100.00;99748.44;5037202;28;20074;-77
2023/09/23 01:47:25;;;;;;;5.70;2.58;;;;;;;15.43;100.00;99748.19;5054331;28;20059;-77
2023/09/23 01:49:52;;;;;;;6.18;2.67;;;;;;;15.38;100.00;99746.16;5019240;28;20031;-78
2023/09/23 01:52:19;;;;;;;6.38;2.47;;;;;;;15.35;100.00;99747.25;5052960;28;20040;-76
2023/09/23 01:54:50;;;;;;;4.55;2.30;;;;;;;15.34;100.00;99747.78;5053788;28;20025;-78
2023/09/23 01:57:18;;;;;;;4.28;2.63;;;;;;;15.31;100.00;99748.88;5054077;28;20031;-78
2023/09/23 01:59:44;;;;;;;3.72;2.30;;;;;;;15.24;100.00;99742.38;5053603;28;20053;-78
2023/09/23 02:02:09;;;;;;;5.97;3.03;;;;;;;15.20;100.00;99750.53;5053533;28;20363;-77
2023/09/23 02:04:37;;;;;;;5.82;3.05;;;;;;;15.16;100.00;99747.19;5053527;28;20044;-76
2023/09/23 02:07:11;;;;;;;5.15;2.28;;;;;;;15.14;100.00;99746.16;5052267;28;20029;-77
2023/09/23 02:09:38;;;;;;;4.43;2.78;;;;;;;15.10;100.00;99743.59;5052479;28;20024;-77
2023/09/23 02:12:04;;;;;;;7.32;2.60;;;;;;;15.07;100.00;99746.75;5053481;28;20036;-77
2023/09/23 02:14:30;;;;;;;4.45;2.20;;;;;;;15.03;100.00;99746.25;5053375;28;20063;-76
2023/09/23 02:16:57;;;;;;;6.82;3.10;;;;;;;14.99;100.00;99745.78;5053662;28;20509;-77
2023/09/23 02:19:24;;;;;;;5.32;2.63;;;;;;;14.94;100.00;99743.72;5052387;28;20108;-77
2023/09/23 02:21:51;;;;;;;6.40;2.88;;;;;;;14.83;100.00;99751.16;5052382;28;20074;-79
2023/09/23 02:24:18;;;;;;;3.95;2.47;;;;;;;14.84;100.00;99754.81;5036223;28;20048;-78
2023/09/23 02:26:48;;;;;;;6.25;2.90;;;;;;;14.79;100.00;99755.63;5035711;28;20413;-78
2023/09/23 02:29:15;;;;;;;6.57;2.40;;;;;;;14.74;100.00;99754.38;5052119;28;20130;-76
2023/09/23 02:31:48;;;;;;;4.25;2.58;;;;;;;14.69;100.00;99752.31;5053753;28;20021;-78
2023/09/23 02:34:18;;;;;;;5.38;3.25;;;;;;;14.65;100.00;99745.28;5053908;28;20025;-77
2023/09/23 02:36:50;;;;;;;5.53;2.78;;;;;;;14.61;100.00;99762.84;5053500;28;20037;-78
2023/09/23 02:39:20;;;;;;;7.88;2.90;;;;;;;14.56;100.00;99769.38;5036716;28;20029;-78
2023/09/23 02:41:48;;;;;;;5.63;2.67;;;;;;;14.64;100.00;99773.28;5035719;28;20410;-77
2023/09/23 02:44:29;;;;;;;7.18;3.15;;;;;;;14.63;100.00;99765.16;5052103;28;20128;-78
2023/09/23 02:46:56;;;;;;;7.05;2.58;;;;;;;14.61;100.00;99757.09;5053534;28;20033;-78
2023/09/23 02:49:23;;;;;;;5.93;2.40;;;;;;;14.59;100.00;99741.69;5053175;28;20032;-76
2023/09/23 02:51:50;;;;;;;4.78;2.75;;;;;;;14.59;100.00;99741.69;5051825;28;20025;-78
2023/09/23 02:54:17;;;;;;;7.97;2.90;;;;;;;14.56;100.00;99736.97;5051740;28;20517;-78
2023/09/23 02:56:50;;;;;;;4.28;2.60;;;;;;;14.59;100.00;99738.81;5053383;28;20075;-77
2023/09/23 02:59:26;;;;;;;9.23;2.60;;;;;;;14.57;100.00;99750.81;5052201;28;20036;-78
2023/09/23 03:01:54;;;;;;;4.32;2.40;;;;;;;14.58;100.00;99763.09;5053290;28;20031;-77
2023/09/23 03:04:23;;;;;;;6.03;2.75;;;;;;;14.58;100.00;99777.47;5057292;28;20021;-77
2023/09/23 03:07:02;;;;;;;5.63;2.90;;;;;;;14.62;100.00;99764.41;5057039;28;20025;-77
2023/09/23 03:09:43;;;;;;;4.15;2.85;;;;;;;14.66;100.00;99773.53;5057227;28;20044;-77
2023/09/23 03:12:10;;;;;;;4.93;2.33;;;;;;;14.70;100.00;99774.00;5057337;28;20029;-77
2023/09/23 03:14:38;;;;;;;6.68;2.53;;;;;;;14.75;100.00;99783.91;5057032;28;20056;-78
2023/09/23 03:17:07;;;;;;;5.43;2.75;;;;;;;14.77;100.00;99804.31;5057308;28;20035;-79
2023/09/23 03:19:41;;;;;;;6.53;2.88;;;;;;;14.78;100.00;99815.25;5055681;28;20436;-77
2023/09/23 03:22:07;;;;;;;3.40;2.00;;;;;;;14.78;100.00;99812.38;5057078;28;20036;-77
2023/09/23 03:24:33;;;;;;;4.47;2.10;;;;;;;14.81;100.00;99813.41;5022642;28;20028;-78
2023/09/23 03:27:00;;;;;;;4.47;2.30;;;;;;;14.83;100.00;99820.19;5056778;28;20044;-76
2023/09/23 03:29:30;;;;;;;7.20;2.25;;;;;;;14.83;100.00;99836.66;5056686;28;20033;-77
2023/09/23 03:31:56;;;;;;;7.35;2.80;;;;;;;14.84;100.00;99838.22;5055599;28;20047;-76
2023/09/23 03:34:23;;;;;;;6.65;2.53;;;;;;;14.87;100.00;99836.41;5022174;28;20029;-77
2023/09/23 03:36:53;;;;;;;6.85;2.88;;;;;;;14.90;100.00;99841.06;5056528;28;20029;-77
2023/09/23 03:39:20;;;;;;;5.93;2.95;;;;;;;14.92;100.00;99847.09;5055368;28;20033;-77
2023/09/23 03:41:46;;;;;;;10.68;3.25;;;;;;;14.95;100.00;99843.13;5056302;28;20430;-77
2023/09/23 03:44:20;;;;;;;6.25;2.72;;;;;;;15.00;100.00;99848.84;5056336;28;20032;-77
2023/09/23 03:46:47;;;;;;;6.10;3.00;;;;;;;15.03;100.00;99841.22;5056556;28;20035;-77
2023/09/23 03:49:13;;;;;;;4.03;2.72;;;;;;;15.03;100.00;99842.00;5022179;28;20029;-77
2023/09/23 03:51:40;;;;;;;5.72;3.05;;;;;;;15.08;100.00;99855.56;5056549;28;20028;-77
2023/09/23 03:54:06;;;;;;;18.45;5.68;;;;;;;15.08;100.00;99854.78;5056919;28;20029;-78
2023/09/23 03:56:33;;;;;;;5.22;2.42;;;;;;;15.07;100.00;99856.88;5056196;28;20028;-77
2023/09/23 03:59:08;;;;;;;6.82;3.05;;;;;;;14.98;100.00;99847.81;5038673;28;20447;-77
2023/09/23 04:01:36;;;;;;;5.40;2.42;;;;;;;15.06;100.00;99871.81;5056529;28;20047;-77
2023/09/23 04:04:03;;;;;;;7.20;2.85;;;;;;;15.06;100.00;99855.34;5056196;28;20063;-78
2023/09/23 04:06:29;;;;;;;6.82;3.13;;;;;;;15.09;100.00;99853.47;5055969;28;20074;-76
2023/09/23 04:08:58;;;;;;;5.10;3.03;;;;;;;15.07;100.00;99856.88;5055788;28;20025;-76
2023/09/23 04:11:24;;;;;;;5.25;2.88;;;;;;;15.04;100.00;99868.69;5055750;28;20517;-76
2023/09/23 04:13:50;;;;;;;7.55;3.13;;;;;;;15.03;100.00;99885.16;5054162;28;20067;-78
2023/09/23 04:16:15;;;;;;;5.57;3.58;;;;;;;15.00;100.00;99874.75;5054903;28;20032;-77
2023/09/23 04:18:41;;;;;;;5.13;3.25;;;;;;;14.98;100.00;99865.84;5055135;28;20031;-77
2023/09/23 04:21:08;;;;;;;5.65;3.15;;;;;;;14.94;100.00;99871.13;5055733;28;20381;-77
2023/09/23 04:23:34;;;;;;;6.25;3.25;;;;;;;14.90;100.00;99875.59;5056033;28;20466;-77
2023/09/23 04:26:02;;;;;;;6.82;3.00;;;;;;;14.83;100.00;99866.22;5055407;28;20032;-78
2023/09/23 04:28:27;;;;;;;5.90;3.63;;;;;;;14.75;100.00;99870.19;5055451;28;20438;-78
2023/09/23 04:30:53;;;;;;;6.07;3.00;;;;;;;14.66;100.00;99873.41;5056009;28;20036;-78
2023/09/23 04:33:20;;;;;;;6.05;3.42;;;;;;;14.57;100.00;99876.56;5055876;28;20096;-78
2023/09/23 04:35:46;;;;;;;6.13;3.78;;;;;;;14.53;100.00;99884.69;5054327;28;20122;-78
2023/09/23 04:38:11;;;;;;;6.47;3.58;;;;;;;14.50;100.00;99886.53;5055565;28;20485;-77
2023/09/23 04:40:37;;;;;;;9.10;3.78;;;;;;;14.46;100.00;99882.38;5055111;28;20045;-77
2023/09/23 04:43:03;;;;;;;10.13;3.65;;;;;;;14.46;100.00;99897.53;5055409;28;20143;-76
2023/09/23 04:45:28;;;;;;;7.82;3.30;;;;;;;14.45;100.00;99900.94;5055410;28;20017;-78
2023/09/23 04:47:54;;;;;;;9.60;3.45;;;;;;;14.46;100.00;99899.63;5054079;28;20407;-78
2023/09/23 04:50:23;;;;;;;8.73;4.72;;;;;;;14.49;100.00;99892.78;5055454;28;20032;-78
2023/09/23 04:52:50;;;;;;;5.05;3.25;;;;;;;14.51;100.00;99890.19;5055072;28;20028;-78
2023/09/23 04:55:16;;;;;;;14.32;3.88;;;;;;;14.53;100.00;99919.97;5055017;28;20104;-77
2023/09/23 04:57:41;;;;;;;9.18;3.17;;;;;;;14.57;100.00;99925.44;5054886;28;20099;-77
2023/09/23 05:00:09;;;;;;;8.45;4.35;;;;;;;14.61;100.00;99926.75;5055000;28;20131;-78
2023/09/23 05:02:37;;;;;;;6.80;3.30;;;;;;;14.66;100.00;99931.72;5055000;28;20024;-78
2023/09/23 05:05:03;;;;;;;7.25;3.17;;;;;;;14.70;100.00;99934.28;5053638;28;20025;-78
2023/09/23 05:07:29;;;;;;;4.75;3.08;;;;;;;14.74;100.00;99940.53;5053332;28;20047;-78
2023/09/23 05:09:57;;;;;;;9.48;3.65;;;;;;;14.77;100.00;99953.88;5055036;28;20466;-79
2023/09/23 05:12:24;;;;;;;8.18;3.20;;;;;;;14.70;100.00;99960.97;5053613;28;20537;-78
2023/09/23 05:14:49;;;;;;;13.68;4.15;;;;;;;14.81;100.00;99940.78;5054964;28;20112;-78
2023/09/23 05:17:15;;;;;;;11.30;3.63;;;;;;;14.84;100.00;99910.16;5053719;28;20097;-76
2023/09/23 05:19:47;;;;;;;6.43;4.05;;;;;;;14.93;100.00;99906.94;5053133;28;20538;-77
2023/09/23 05:22:12;;;;;;;7.68;3.40;;;;;;;14.96;100.00;99919.50;5053203;28;20033;-77
2023/09/23 05:24:38;;;;;;;8.52;3.92;;;;;;;14.94;100.00;99914.28;5053880;28;20127;-78
2023/09/23 05:27:04;;;;;;;8.07;3.30;;;;;;;14.97;100.00;99907.44;5054540;28;20083;-78
2023/09/23 05:29:30;;;;;;;5.28;3.05;;;;;;;15.00;100.00;99900.63;5054515;28;20098;-75
2023/09/23 05:31:56;;;;;;;9.20;3.70;;;;;;;15.02;100.00;99898.00;5036816;28;20025;-77
2023/09/23 05:34:21;;;;;;;6.93;3.28;;;;;;;15.05;100.00;99896.94;5054343;28;20025;-76
2023/09/23 05:36:47;;;;;;;6.72;3.15;;;;;;;15.06;100.00;99907.13;5054000;28;20075;-77
2023/09/23 05:39:22;;;;;;;10.73;3.47;;;;;;;14.98;100.00;99911.88;5053922;28;20090;-76
2023/09/23 05:41:48;;;;;;;6.05;2.75;;;;;;;15.02;100.00;99915.25;5037305;28;20127;-77
2023/09/23 05:44:16;;;;;;;7.43;2.92;;;;;;;15.09;100.00;99919.66;5053907;28;20112;-77
2023/09/23 05:46:42;;;;;;;6.25;3.17;;;;;;;15.15;100.00;99929.84;5054236;28;20036;-78
2023/09/23 05:49:12;;;;;;;13.93;4.13;;;;;;;15.22;100.00;99931.34;5054037;28;20029;-78
2023/09/23 05:51:38;;;;;;;7.53;3.85;;;;;;;15.39;100.00;99937.75;5054007;28;20078;-77
2023/09/23 05:54:03;;;;;;;7.00;3.08;;;;;;;15.68;100.00;99930.47;5054471;28;20025;-78
2023/09/23 05:56:29;;;;;;;4.47;2.50;;;;;;;16.47;100.00;99943.50;5053908;28;20039;-78
2023/09/23 05:58:54;;;;;;;10.80;2.67;;;;;;;17.54;100.00;99960.13;5054275;28;20103;-77
2023/09/23 06:01:20;;;;;;;5.20;2.38;;;;;;;18.72;100.00;99966.13;5053552;28;20425;-77
2023/09/23 06:03:45;;;;;;;6.22;2.67;;;;;;;19.69;100.00;99950.44;5053479;28;20155;-78
2023/09/23 06:06:11;;;;;;;6.93;2.10;;;;;;;20.06;100.00;99923.13;5053490;28;20573;-78
2023/09/23 06:08:37;;;;;;;9.43;2.30;;;;;;;19.98;100.00;99919.38;5053357;28;20493;-78
2023/09/23 06:11:07;;;;;;;6.78;2.33;;;;;;;19.73;100.00;99921.88;5053506;28;20029;-77
2023/09/23 06:13:34;;;;;;;5.22;2.55;;;;;;;19.43;100.00;99925.25;5053315;28;20063;-78
2023/09/23 06:16:05;;;;;;;5.57;2.15;;;;;;;19.09;100.00;99928.16;5053469;28;20021;-79
2023/09/23 06:18:32;;;;;;;4.32;2.30;;;;;;;18.98;100.00;99942.88;5053358;28;20032;-78
2023/09/23 06:21:01;;;;;;;11.65;2.28;;;;;;;19.33;100.00;99952.38;5053407;28;20033;-77
2023/09/23 06:23:27;;;;;;;5.93;3.05;;;;;;;19.93;100.00;99952.19;5053834;28;20033;-77
2023/09/23 06:25:57;;;;;;;6.05;1.60;;;;;;;20.04;100.00;99965.66;5052110;28;20040;-78
2023/09/23 06:28:23;;;;;;;3.78;1.90;;;;;;;19.91;100.00;99978.84;5053445;28;20107;-78
2023/09/23 06:30:49;;;;;;;4.50;1.80;;;;;;;19.84;100.00;100004.91;5051740;28;20053;-78
2023/09/23 06:33:14;;;;;;;10.30;2.47;;;;;;;19.76;100.00;100024.31;5053085;28;20033;-77
2023/09/23 06:35:40;;;;;;;2.95;1.55;;;;;;;19.93;100.00;100018.91;5052355;28;20031;-79
2023/09/23 06:38:05;;;;;;;6.88;2.25;;;;;;;20.63;100.00;99986.97;5053414;28;20385;-77
2023/09/23 06:40:30;;;;;;;5.70;2.10;;;;;;;21.47;100.00;99954.06;5051896;28;20073;-76
2023/09/23 06:42:56;;;;;;;2.97;1.58;;;;;;;22.41;100.00;99940.53;5053638;28;20036;-77
2023/09/23 06:45:21;;;;;;;3.28;1.55;;;;;;;23.22;100.00;99953.84;5052653;28;20024;-79
2023/09/23 06:47:47;;;;;;;5.28;1.80;;;;;;;23.71;100.00;99965.63;5052507;28;20076;-78
2023/09/23 06:50:12;;;;;;;6.25;1.42;;;;;;;23.98;100.00;99970.88;5053677;28;20040;-77
2023/09/23 06:52:38;;;;;;;3.83;1.42;;;;;;;24.28;100.00;99978.66;5053266;28;20430;-78
2023/09/23 06:55:03;;;;;;;3.40;1.33;;;;;;;24.78;100.00;99977.16;5051913;28;20032;-77
2023/09/23 06:57:29;;;;;;;3.03;1.58;;;;;;;25.42;100.00;99975.22;5053187;28;20466;-78
2023/09/23 06:59:55;;;;;;;2.35;1.48;;;;;;;25.92;100.00;99985.22;5051949;28;20122;-78
2023/09/23 07:02:20;;;;;;;2.67;2.10;;;;;;;26.12;100.00;99979.50;5053108;28;20466;-78
2023/09/23 07:04:46;;;;;;;3.63;1.73;;;;;;;26.22;100.00;99986.91;5053289;28;20029;-77
2023/09/23 07:07:12;;;;;;;3.72;1.75;;;;;;;26.48;100.00;99975.72;5053012;28;20437;-78
2023/09/23 07:09:38;;;;;;;3.63;1.80;;;;;;;26.70;100.00;99975.31;5053261;28;20104;-81
2023/09/23 07:12:04;;;;;;;6.00;1.95;;;;;;;27.02;100.00;99996.78;5052888;28;20029;-82
2023/09/23 07:14:30;;;;;;;4.00;1.90;;;;;;;27.15;100.00;100008.09;5053376;28;20466;-82
2023/09/23 07:16:55;;;;;;;3.47;1.80;;;;;;;27.18;100.00;100016.41;5053480;28;20130;-76
2023/09/23 07:19:21;;;;;;;3.63;2.00;;;;;;;26.98;100.00;100022.88;5052847;28;20520;-78
2023/09/23 07:21:47;;;;;;;3.85;1.73;;;;;;;26.66;100.00;100029.94;5052656;28;20039;-78
2023/09/23 07:24:12;;;;;;;2.40;1.70;;;;;;;26.21;100.00;100025.63;5052747;28;20029;-79
2023/09/23 07:26:38;;;;;;;4.95;2.00;;;;;;;25.75;100.00;100026.28;5052994;28;20028;-81
2023/09/23 07:29:03;;;;;;;2.92;2.33;;;;;;;25.41;100.00;100015.41;5051889;28;20028;-78
2023/09/23 07:31:29;;;;;;;2.90;1.77;;;;;;;25.29;100.00;100013.63;5053706;28;20029;-79
2023/09/23 07:33:54;;;;;;;2.85;1.45;;;;;;;25.26;100.00;100014.84;5055377;28;20040;-78
2023/09/23 07:36:19;;;;;;;7.10;1.98;;;;;;;25.22;100.00;100024.06;5054567;28;20033;-79
2023/09/23 07:38:45;;;;;;;2.75;1.73;;;;;;;25.16;100.00;100031.53;5054799;28;20382;-77
2023/09/23 07:41:10;;;;;;;1.85;1.17;;;;;;;25.07;100.00;100035.94;5053485;28;20049;-82
2023/09/23 07:43:38;;;;;;;3.38;1.40;;;;;;;24.86;100.00;100053.88;5052714;28;20417;-77
2023/09/23 07:46:04;;;;;;;2.72;1.05;;;;;;;24.63;100.00;100051.16;5053013;28;20037;-78
2023/09/23 07:48:29;;;;;;;2.10;1.20;;;;;;;24.33;100.00;100048.50;5054608;28;20029;-79
2023/09/23 07:50:55;;;;;;;3.30;1.10;;;;;;;24.20;100.00;100063.38;5054866;28;20056;-79
2023/09/23 07:53:21;;;;;;;3.17;1.33;;;;;;;24.07;100.00;100057.81;5056195;28;20033;-77
2023/09/23 07:55:47;;;;;;;6.75;1.35;;;;;;;24.00;100.00;100064.50;5056286;28;20366;-80
2023/09/23 07:58:13;;;;;;;4.45;1.65;;;;;;;23.93;100.00;100060.25;5054733;28;20028;-79
2023/09/23 08:00:38;;;;;;;1.80;1.33;;;;;;;23.83;100.00;100064.41;5056645;28;20063;-79
2023/09/23 08:03:04;;;;;;;2.33;1.63;;;;;;;23.76;100.00;100081.34;5054995;28;20071;-77
2023/09/23 08:05:29;;;;;;;2.42;1.40;;;;;;;23.71;100.00;100085.28;5055525;28;20099;-79
2023/09/23 08:07:55;;;;;;;1.65;1.30;;;;;;;23.56;100.00;100090.41;5056882;28;20044;-80
2023/09/23 08:10:20;;;;;;;2.75;1.40;;;;;;;23.39;100.00;100099.78;5054897;28;20040;-80
2023/09/23 08:12:46;;;;;;;2.63;1.15;;;;;;;23.14;100.00;100085.09;5038848;28;20544;-78
2023/09/23 08:15:11;;;;;;;1.77;1.20;;;;;;;23.07;100.00;100096.75;5055603;28;20432;-78
2023/09/23 08:17:40;;;;;;;2.42;1.13;;;;;;;22.92;100.00;100094.66;5055954;28;20043;-78
2023/09/23 08:20:20;;;;;;;1.73;1.42;;;;;;;22.65;100.00;100093.50;5055914;28;20079;-78
2023/09/23 08:22:48;;;;;;;2.58;1.33;;;;;;;22.55;100.00;100101.25;5056314;28;20540;-79
2023/09/23 08:25:15;;;;;;;2.90;1.25;;;;;;;22.46;100.00;100105.53;5056323;28;20037;-81
2023/09/23 08:27:41;;;;;;;2.58;1.50;;;;;;;22.31;100.00;100085.16;5055869;28;20060;-83
2023/09/23 08:30:08;;;;;;;2.13;1.20;;;;;;;22.30;100.00;100101.06;5055701;28;20465;-78
2023/09/23 08:32:33;;;;;;;3.35;1.60;;;;;;;22.40;100.00;100102.03;5056771;28;20366;-79
2023/09/23 08:34:59;;;;;;;1.42;1.00;;;;;;;22.48;100.00;100097.75;5056143;28;20044;-79
2023/09/23 08:37:24;;;;;;;2.70;1.30;;;;;;;22.43;100.00;100097.94;5056614;28;20192;-80
2023/09/23 08:39:49;;;;;;;6.05;1.35;;;;;;;22.38;100.00;100114.25;5056051;28;20073;-77
2023/09/23 08:42:19;;;;;;;2.33;1.42;;;;;;;22.33;100.00;100108.63;5055741;28;20032;-82
2023/09/23 08:44:44;;;;;;;3.13;1.30;;;;;;;22.34;100.00;100110.97;5055832;28;20076;-80
2023/09/23 08:47:10;;;;;;;1.75;1.13;;;;;;;22.31;100.00;100131.72;5054529;28;20491;-79
2023/09/23 08:49:37;;;;;;;1.25;1.15;;;;;;;22.28;100.00;100142.38;5054715;28;20040;-79
2023/09/23 08:52:04;;;;;;;4.20;1.38;;;;;;;22.27;100.00;100125.53;5054811;28;20048;-79
2023/09/23 08:54:29;;;;;;;1.50;1.30;;;;;;;22.30;100.00;100133.88;5054991;28;20036;-82
2023/09/23 08:56:56;;;;;;;9.13;1.80;;;;;;;22.42;100.00;100143.00;5055452;28;20028;-78
2023/09/23 08:59:21;;;;;;;3.15;1.38;;;;;;;22.51;100.00;100136.63;5055321;28;20047;-77
2023/09/23 09:01:46;;;;;;;2.30;1.38;;;;;;;22.52;100.00;100147.66;5055471;28;20458;-79
2023/09/23 09:04:14;;;;;;;3.28;1.38;;;;;;;22.43;100.00;100148.25;5055828;28;20051;-77
2023/09/23 09:06:49;;;;;;;3.28;1.65;;;;;;;22.31;100.00;100152.13;5055552;28;20070;-79
2023/09/23 09:09:16;;;;;;;1.85;1.45;;;;;;;22.16;100.00;100152.06;5055389;28;20024;-78
2023/09/23 09:11:42;;;;;;;2.13;1.23;;;;;;;22.16;100.00;100154.97;5055265;28;20083;-80
2023/09/23 09:14:08;;;;;;;2.92;1.50;;;;;;;22.08;100.00;100149.88;5053778;28;20032;-79
2023/09/23 09:16:34;;;;;;;2.38;1.38;;;;;;;22.00;100.00;100154.13;5054794;28;20051;-77
2023/09/23 09:18:59;;;;;;;2.05;1.50;;;;;;;22.01;100.00;100153.56;5055025;28;20421;-77
2023/09/23 09:21:26;;;;;;;5.28;1.20;;;;;;;22.00;100.00;100152.00;5054664;28;20032;-80
2023/09/23 09:23:52;;;;;;;1.73;1.08;;;;;;;21.92;100.00;100142.47;5053386;28;20159;-80
2023/09/23 09:26:19;;;;;;;2.17;1.13;;;;;;;21.86;100.00;100141.88;5054909;28;20025;-79
2023/09/23 09:28:44;;;;;;;1.40;1.27;;;;;;;21.83;100.00;100142.25;5053429;28;20029;-78
2023/09/23 09:31:09;;;;;;;4.90;1.40;;;;;;;21.84;100.00;100152.53;5053192;28;20373;-78
2023/09/23 09:33:37;;;;;;;1.40;1.10;;;;;;;21.84;100.00;100149.59;5053763;28;20106;-81
2023/09/23 09:36:04;;;;;;;1.00;0.90;;;;;;;21.80;100.00;100147.09;5054964;28;20492;-80
2023/09/23 09:38:33;;;;;;;0.85;0.80;;;;;;;21.81;100.00;100151.56;5053483;28;20461;-78
2023/09/23 09:41:03;;;;;;;3.78;1.20;;;;;;;21.85;100.00;100160.69;5053085;28;20045;-77
2023/09/23 09:43:30;;;;;;;1.00;0.90;;;;;;;21.82;100.00;100153.13;5053297;28;20488;-79
2023/09/23 09:45:57;;;;;;;2.15;1.23;;;;;;;21.78;100.00;100146.13;5054523;28;20528;-78
2023/09/23 09:48:28;;;;;;;1.02;0.95;;;;;;;21.69;100.00;100144.50;5054268;28;20041;-78
2023/09/23 09:50:54;;;;;;;3.90;1.23;;;;;;;21.67;100.00;100148.00;5052699;28;20071;-76
2023/09/23 09:53:20;;;;;;;2.00;1.20;;;;;;;21.74;100.00;100151.50;5053967;28;20024;-78
2023/09/23 09:55:46;;;;;;;3.05;1.33;;;;;;;21.76;100.00;100157.53;5054106;28;20078;-78
2023/09/23 09:58:11;;;;;;;1.40;1.08;;;;;;;21.68;100.00;100148.78;5053726;28;20025;-82
2023/09/23 10:00:43;;;;;;;2.35;1.25;;;;;;;21.79;100.00;100148.44;5052645;28;20037;-77
2023/09/23 10:03:11;;;;;;;3.28;1.42;;;;;;;21.76;100.00;100149.59;5053783;28;20028;-79
2023/09/23 10:05:46;;;;;;;3.88;1.20;;;;;;;21.80;100.00;100144.19;5054025;28;20051;-77
2023/09/23 10:08:15;;;;;;;2.53;1.40;;;;;;;21.94;100.00;100153.53;5052984;28;20033;-79
2023/09/23 10:10:48;;;;;;;1.55;1.45;;;;;;;21.97;100.00;100152.38;5052420;28;20025;-79
2023/09/23 10:13:17;;;;;;;3.13;1.42;;;;;;;21.91;100.00;100146.75;5053849;28;20485;-79
2023/09/23 10:15:43;;;;;;;1.77;1.45;;;;;;;21.92;100.00;100153.34;5052492;28;20424;-77
2023/09/23 10:18:16;;;;;;;5.47;1.20;;;;;;;21.98;100.00;100153.94;5053630;28;20546;-77
2023/09/23 10:20:56;;;;;;;3.72;1.30;;;;;;;22.00;100.00;100130.84;5053697;28;20043;-78
2023/09/23 10:23:22;;;;;;;2.30;1.75;;;;;;;22.12;100.00;100142.94;5053612;28;20039;-79
2023/09/23 10:25:48;;;;;;;1.35;1.10;;;;;;;22.14;100.00;100146.00;5053633;28;20029;-79
2023/09/23 10:28:30;;;;;;;2.28;1.17;;;;;;;21.98;100.00;100131.41;5053296;28;20040;-78
2023/09/23 10:30:59;;;;;;;1.50;0.95;;;;;;;21.84;100.00;100144.56;5053492;28;20377;-77
2023/09/23 10:33:26;;;;;;;1.63;0.88;;;;;;;21.79;100.00;100148.44;5053697;28;20079;-78
2023/09/23 10:35:52;;;;;;;2.60;0.70;;;;;;;21.89;100.00;100152.34;5053541;28;20462;-77
2023/09/23 10:38:22;;;;;;;1.50;0.95;;;;;;;21.93;100.00;100143.25;5053677;28;20200;-81
2023/09/23 10:40:51;;;;;;;1.08;0.70;;;;;;;22.07;100.00;100145.44;5053223;28;20080;-78
2023/09/23 10:43:17;;;;;;;0.63;0.63;;;;;;;22.18;100.00;100147.22;5052300;28;20067;-77
2023/09/23 10:45:44;;;;;;;3.00;1.05;;;;;;;22.26;100.00;100144.34;5052521;28;20033;-77
2023/09/23 10:48:09;;;;;;;1.95;0.90;;;;;;;22.27;100.00;100143.00;5052407;28;20036;-78
2023/09/23 10:50:35;;;;;;;1.30;0.85;;;;;;;22.24;100.00;100142.00;5051937;28;20458;-79
2023/09/23 10:53:00;;;;;;;2.13;0.90;;;;;;;22.18;100.00;100152.25;5053292;28;20060;-79
2023/09/23 10:55:26;;;;;;;2.08;1.00;;;;;;;22.16;100.00;100149.13;5052397;28;20036;-80
2023/09/23 10:57:51;;;;;;;1.35;1.00;;;;;;;22.16;100.00;100160.78;5054362;28;20029;-78
2023/09/23 11:00:20;;;;;;;4.45;1.25;;;;;;;22.14;100.00;100164.25;5052821;28;20064;-78
2023/09/23 11:02:51;;;;;;;1.33;1.00;;;;;;;22.09;100.00;100160.19;5052548;28;20029;-78
2023/09/23 11:05:16;;;;;;;1.10;1.00;;;;;;;22.14;100.00;100158.44;5053836;28;20029;-79
2023/09/23 11:07:42;;;;;;;1.20;1.02;;;;;;;22.15;100.00;100168.72;5053942;28;20351;-76
2023/09/23 11:10:11;;;;;;;2.85;0.95;;;;;;;22.10;100.00;100178.41;5053526;28;20021;-79
2023/09/23 11:12:36;;;;;;;1.33;1.00;;;;;;;21.95;100.00;100166.72;5053548;28;20157;-79
2023/09/23 11:15:02;;;;;;;1.33;1.02;;;;;;;21.93;100.00;100167.28;5052961;28;20470;-78
2023/09/23 11:17:31;;;;;;;1.63;1.20;;;;;;;21.96;100.00;100168.28;5052938;28;20528;-78
2023/09/23 11:19:57;;;;;;;1.58;1.20;;;;;;;21.87;100.00;100160.91;5052760;28;20056;-77
2023/09/23 11:22:27;;;;;;;3.10;1.70;;;;;;;21.81;100.00;100171.91;5053467;28;20028;-78